createdAt,value
2023-08-14T00:02:14.215Z,101002.78
2023-08-14T00:04:43.735Z,101004.69
2023-08-14T00:07:13.335Z,100999.44
2023-08-14T00:09:43.157Z,101008.22
2023-08-14T00:12:11.940Z,100997.22
2023-08-14T00:14:40.230Z,101004.38
2023-08-14T00:17:08.090Z,100991.72
2023-08-14T00:19:37.386Z,100996.63
2023-08-14T00:22:06.201Z,100992.22
2023-08-14T00:24:35.483Z,101002.66
2023-08-14T00:27:03.974Z,100994.91
2023-08-14T00:29:33.291Z,101003.41
2023-08-14T00:32:03.179Z,101009.16
2023-08-14T00:34:32.806Z,101005.78
2023-08-14T00:37:03.606Z,101009.03
2023-08-14T00:39:32.885Z,101004.63
2023-08-14T00:42:01.809Z,101007.31
2023-08-14T00:44:32.634Z,101017.38
2023-08-14T00:47:02.562Z,101004.75
2023-08-14T00:49:34.047Z,101005.81
2023-08-14T00:52:06.349Z,100997.84
2023-08-14T00:54:36.904Z,101002.75
2023-08-14T00:57:09.894Z,101011.50
2023-08-14T00:59:41.645Z,101005.69
2023-08-14T01:02:11.299Z,101003.63
2023-08-14T01:04:40.368Z,101016.19
2023-08-14T01:07:10.670Z,101003.03
2023-08-14T01:09:43.448Z,101003.03
2023-08-14T01:12:24.656Z,101003.78
2023-08-14T01:15:01.194Z,101002.34
2023-08-14T01:17:34.678Z,101003.19
2023-08-14T01:20:05.967Z,101000.69
2023-08-14T01:22:46.328Z,101000.34
2023-08-14T01:25:31.884Z,101008.50
2023-08-14T01:28:01.697Z,100999.72
2023-08-14T01:30:30.409Z,101004.34
2023-08-14T01:32:59.198Z,100999.97
2023-08-14T01:35:33.187Z,101000.19
2023-08-14T01:38:08.358Z,101008.44
2023-08-14T01:40:48.019Z,101002.72
2023-08-14T01:43:24.951Z,100995.03
2023-08-14T01:45:55.786Z,101001.84
2023-08-14T01:48:25.814Z,101002.63
2023-08-14T01:50:55.851Z,101000.44
2023-08-14T01:53:25.140Z,100998.56
2023-08-14T01:55:54.729Z,100993.88
2023-08-14T01:58:25.881Z,100995.22
2023-08-14T02:00:57.399Z,100985.03
2023-08-14T02:03:26.626Z,100975.97
2023-08-14T02:05:57.050Z,100974.91
2023-08-14T02:08:27.044Z,100975.38
2023-08-14T02:10:57.831Z,100959.00
2023-08-14T02:13:26.213Z,100968.75
2023-08-14T02:15:55.193Z,100970.25
2023-08-14T02:18:22.991Z,100962.44
2023-08-14T02:20:54.334Z,100964.59
2023-08-14T02:23:22.746Z,100963.19
2023-08-14T02:25:50.707Z,100968.06
2023-08-14T02:28:22.164Z,100959.94
2023-08-14T02:30:50.350Z,100953.63
2023-08-14T02:33:19.021Z,100958.00
2023-08-14T02:35:48.155Z,100955.78
2023-08-14T02:38:17.038Z,100960.44
2023-08-14T02:40:45.611Z,100960.44
2023-08-14T02:43:14.474Z,100956.75
2023-08-14T02:45:45.098Z,100953.59
2023-08-14T02:48:14.632Z,100956.09
2023-08-14T02:50:43.300Z,100956.19
2023-08-14T02:53:12.191Z,100949.03
2023-08-14T02:55:43.127Z,100947.78
2023-08-14T02:58:11.711Z,100944.78
2023-08-14T03:00:40.276Z,100944.78
2023-08-14T03:03:09.964Z,100947.88
2023-08-14T03:05:38.679Z,100956.94
2023-08-14T03:08:07.807Z,100955.22
2023-08-14T03:10:35.766Z,100948.53
2023-08-14T03:13:03.711Z,100943.97
2023-08-14T03:15:31.781Z,100945.94
2023-08-14T03:18:00.065Z,100947.09
2023-08-14T03:20:29.656Z,100945.78
2023-08-14T03:22:57.461Z,100940.81
2023-08-14T03:25:25.444Z,100950.34
2023-08-14T03:27:53.804Z,100952.75
2023-08-14T03:30:22.076Z,100936.28
2023-08-14T03:32:51.998Z,100933.81
2023-08-14T03:35:20.875Z,100937.50
2023-08-14T03:37:51.310Z,100933.72
2023-08-14T03:40:19.598Z,100936.00
2023-08-14T03:42:47.567Z,100931.69
2023-08-14T03:45:15.764Z,100929.50
2023-08-14T03:47:43.959Z,100931.06
2023-08-14T03:50:12.926Z,100936.81
2023-08-14T03:52:41.728Z,100933.81
2023-08-14T03:55:12.675Z,100928.94
2023-08-14T03:57:42.422Z,100930.34
2023-08-14T04:00:11.720Z,100927.81
2023-08-14T04:02:40.283Z,100927.25
2023-08-14T04:05:09.406Z,100934.34
2023-08-14T04:07:37.406Z,100930.75
2023-08-14T04:10:06.362Z,100936.56
2023-08-14T04:12:38.133Z,100931.75
2023-08-14T04:15:16.481Z,100930.81
2023-08-14T04:17:45.252Z,100935.66
2023-08-14T04:20:14.723Z,100934.38
2023-08-14T04:22:44.318Z,100929.47
2023-08-14T04:25:13.280Z,100931.72
2023-08-14T04:27:43.658Z,100932.06
2023-08-14T04:30:13.051Z,100926.03
2023-08-14T04:32:42.057Z,100921.47
2023-08-14T04:35:12.294Z,100916.47
2023-08-14T04:37:40.929Z,100921.66
2023-08-14T04:40:10.994Z,100924.31
2023-08-14T04:42:41.287Z,100915.75
2023-08-14T04:45:12.927Z,100916.84
2023-08-14T04:47:41.612Z,100919.31
2023-08-14T04:50:10.439Z,100919.56
2023-08-14T04:52:40.426Z,100909.66
2023-08-14T04:55:10.434Z,100917.81
2023-08-14T04:57:39.762Z,100907.63
2023-08-14T05:00:10.894Z,100915.84
2023-08-14T05:02:42.465Z,100920.00
2023-08-14T05:05:11.269Z,100911.34
2023-08-14T05:07:39.934Z,100915.75
2023-08-14T05:10:09.186Z,100917.97
2023-08-14T05:12:37.988Z,100916.41
2023-08-14T05:15:07.630Z,100922.47
2023-08-14T05:17:36.273Z,100923.63
2023-08-14T05:20:07.012Z,100923.06
2023-08-14T05:22:34.838Z,100925.81
2023-08-14T05:25:02.854Z,100921.97
2023-08-14T05:27:32.966Z,100918.66
2023-08-14T05:30:00.871Z,100919.13
2023-08-14T05:32:28.717Z,100910.69
2023-08-14T05:34:56.521Z,100919.22
2023-08-14T05:37:25.808Z,100918.72
2023-08-14T05:39:53.721Z,100913.47
2023-08-14T05:42:21.736Z,100910.50
2023-08-14T05:44:49.481Z,100920.00
2023-08-14T05:47:17.639Z,100920.81
2023-08-14T05:49:45.542Z,100918.31
2023-08-14T05:52:13.608Z,100914.25
2023-08-14T05:54:43.016Z,100920.31
2023-08-14T05:57:10.855Z,100918.28
2023-08-14T05:59:38.724Z,100917.06
2023-08-14T06:02:06.688Z,100921.84
2023-08-14T06:04:37.875Z,100923.00
2023-08-14T06:07:05.897Z,100905.03
2023-08-14T06:09:34.065Z,100911.25
2023-08-14T06:12:03.315Z,100916.88
2023-08-14T06:14:31.264Z,100915.28
2023-08-14T06:16:59.280Z,100935.66
2023-08-14T06:19:27.309Z,100933.03
2023-08-14T06:21:55.572Z,100941.03
2023-08-14T06:24:23.694Z,100934.06
2023-08-14T06:26:52.039Z,100935.91
2023-08-14T06:29:21.525Z,100932.38
2023-08-14T06:31:49.533Z,100935.06
2023-08-14T06:34:17.991Z,100938.72
2023-08-14T06:36:46.453Z,100934.06
2023-08-14T06:39:14.414Z,100929.44
2023-08-14T06:41:44.582Z,100926.00
2023-08-14T06:44:13.006Z,100931.50
2023-08-14T06:46:42.518Z,100931.63
2023-08-14T06:49:12.377Z,100928.78
2023-08-14T06:51:41.782Z,100913.84
2023-08-14T06:54:09.816Z,100919.22
2023-08-14T06:56:37.743Z,100912.25
2023-08-14T06:59:06.020Z,100922.72
2023-08-14T07:01:34.192Z,100914.78
2023-08-14T07:04:03.801Z,100913.72
2023-08-14T07:06:31.793Z,100907.09
2023-08-14T07:08:59.680Z,100919.63
2023-08-14T07:11:27.646Z,100929.38
2023-08-14T07:13:55.875Z,100933.25
2023-08-14T07:16:23.813Z,100917.50
2023-08-14T07:18:51.742Z,100919.22
2023-08-14T07:21:21.067Z,100927.69
2023-08-14T07:23:49.512Z,100921.91
2023-08-14T07:26:17.731Z,100925.00
2023-08-14T07:28:45.739Z,100926.16
2023-08-14T07:31:13.590Z,100925.91
2023-08-14T07:33:41.790Z,100915.31
2023-08-14T07:36:09.924Z,100924.72
2023-08-14T07:38:39.732Z,100908.28
2023-08-14T07:41:07.679Z,100887.34
2023-08-14T07:43:35.591Z,100892.88
2023-08-14T07:46:03.536Z,100893.72
2023-08-14T07:48:31.466Z,100893.97
2023-08-14T07:50:59.502Z,100886.56
2023-08-14T07:53:27.338Z,100898.75
2023-08-14T07:55:56.611Z,100906.19
2023-08-14T07:58:24.456Z,100890.75
2023-08-14T08:00:53.244Z,100889.41
2023-08-14T08:03:22.160Z,100887.44
2023-08-14T08:05:50.111Z,100895.44
2023-08-14T08:08:18.124Z,100899.03
2023-08-14T08:10:46.022Z,100904.53
2023-08-14T08:13:15.198Z,100911.13
2023-08-14T08:15:43.395Z,100907.25
2023-08-14T08:18:11.550Z,100902.28
2023-08-14T08:20:39.534Z,100903.41
2023-08-14T08:23:07.498Z,100904.53
2023-08-14T08:25:35.349Z,100894.59
2023-08-14T08:28:03.776Z,100897.97
2023-08-14T08:30:33.081Z,100906.53
2023-08-14T08:33:03.691Z,100900.47
2023-08-14T08:35:32.004Z,100897.44
2023-08-14T08:37:59.832Z,100919.47
2023-08-14T08:40:29.005Z,100900.16
2023-08-14T08:42:58.355Z,100901.28
2023-08-14T08:45:33.712Z,100899.91
2023-08-14T08:48:03.703Z,100896.06
2023-08-14T08:50:32.274Z,100899.94
2023-08-14T08:53:00.814Z,100892.50
2023-08-14T08:55:29.957Z,100887.28
2023-08-14T08:57:59.576Z,100878.44
2023-08-14T09:00:28.026Z,100883.97
2023-08-14T09:02:56.391Z,100886.72
2023-08-14T09:05:26.145Z,100885.91
2023-08-14T09:07:54.105Z,100887.28
2023-08-14T09:10:22.244Z,100890.31
2023-08-14T09:12:50.856Z,100890.56
2023-08-14T09:15:18.800Z,100889.97
2023-08-14T09:17:46.694Z,100886.94
2023-08-14T09:20:24.529Z,100878.59
2023-08-14T09:23:00.167Z,100876.69
2023-08-14T09:25:28.570Z,100864.81
2023-08-14T09:27:57.567Z,100876.34
2023-08-14T09:30:27.311Z,100877.41
2023-08-14T09:32:55.859Z,100877.94
2023-08-14T09:35:23.857Z,100877.88
2023-08-14T09:37:51.811Z,100876.19
2023-08-14T09:40:20.967Z,100871.41
2023-08-14T09:42:50.382Z,100872.72
2023-08-14T09:45:19.576Z,100874.56
2023-08-14T09:47:51.359Z,100872.25
2023-08-14T09:50:21.801Z,100871.38
2023-08-14T09:52:50.390Z,100869.69
2023-08-14T09:55:19.259Z,100871.09
2023-08-14T09:57:49.742Z,100873.38
2023-08-14T10:00:18.911Z,100875.34
2023-08-14T10:02:49.044Z,100874.84
2023-08-14T10:05:19.276Z,100879.53
2023-08-14T10:07:47.803Z,100878.13
2023-08-14T10:10:17.276Z,100865.44
2023-08-14T10:12:52.722Z,100866.34
2023-08-14T10:15:26.719Z,100863.94
2023-08-14T10:17:58.641Z,100857.66
2023-08-14T10:20:27.431Z,100861.59
2023-08-14T10:22:55.843Z,100857.97
2023-08-14T10:25:25.021Z,100861.28
2023-08-14T10:27:54.923Z,100860.75
2023-08-14T10:30:24.951Z,100865.66
2023-08-14T10:32:54.967Z,100859.00
2023-08-14T10:35:24.680Z,100858.41
2023-08-14T10:38:04.890Z,100863.41
2023-08-14T10:40:38.144Z,100866.69
2023-08-14T10:43:08.226Z,100864.94
2023-08-14T10:45:36.220Z,100850.13
2023-08-14T10:48:11.768Z,100848.13
2023-08-14T10:50:40.841Z,100854.44
2023-08-14T10:53:09.338Z,100854.91
2023-08-14T10:55:38.876Z,100855.72
2023-08-14T10:58:39.409Z,100855.13
2023-08-14T11:01:09.262Z,100864.50
2023-08-14T11:04:00.503Z,100856.19
2023-08-14T11:06:40.837Z,100868.03
2023-08-14T11:09:08.947Z,100865.25
2023-08-14T11:11:38.577Z,100869.75
2023-08-14T11:14:08.461Z,100866.41
2023-08-14T11:16:37.915Z,100860.06
2023-08-14T11:19:06.483Z,100857.94
2023-08-14T11:21:36.611Z,100852.94
2023-08-14T11:24:11.595Z,100851.81
2023-08-14T11:26:39.673Z,100851.59
2023-08-14T11:29:08.867Z,100851.31
2023-08-14T11:31:44.669Z,100846.91
2023-08-14T11:34:17.451Z,100851.38
2023-08-14T11:39:26.577Z,100848.72
2023-08-14T11:41:54.428Z,100849.59
2023-08-14T11:44:24.148Z,100849.91
2023-08-14T11:46:52.784Z,100842.72
2023-08-14T11:49:21.230Z,100842.06
2023-08-14T11:51:50.221Z,100844.47
2023-08-14T11:54:18.660Z,100838.88
2023-08-14T11:56:48.784Z,100842.97
2023-08-14T11:59:19.308Z,100829.59
2023-08-14T12:01:49.186Z,100831.75
2023-08-14T12:04:17.212Z,100831.16
2023-08-14T12:06:46.150Z,100830.03
2023-08-14T12:09:14.339Z,100826.69
2023-08-14T12:11:42.453Z,100819.97
2023-08-14T12:14:10.588Z,100829.88
2023-08-14T12:16:42.133Z,100818.28
2023-08-14T12:19:12.161Z,100822.59
2023-08-14T12:21:40.768Z,100813.72
2023-08-14T12:24:08.713Z,100821.75
2023-08-14T12:26:41.795Z,100819.44
2023-08-14T12:29:10.355Z,100825.84
2023-08-14T12:31:38.331Z,100814.09
2023-08-14T12:34:07.741Z,100815.28
2023-08-14T12:36:37.334Z,100806.41
2023-08-14T12:39:05.626Z,100811.94
2023-08-14T12:41:33.690Z,100809.22
2023-08-14T12:44:01.638Z,100800.91
2023-08-14T12:46:29.617Z,100803.91
2023-08-14T12:48:57.551Z,100807.84
2023-08-14T12:51:25.507Z,100802.56
2023-08-14T12:53:54.985Z,100801.06
2023-08-14T12:58:56.584Z,100785.81
2023-08-14T13:01:24.962Z,100790.47
2023-08-14T13:03:54.617Z,100786.06
2023-08-14T13:06:23.301Z,100785.00
2023-08-14T13:08:51.441Z,100784.22
2023-08-14T13:11:20.614Z,100779.69
2023-08-14T13:13:48.915Z,100778.88
2023-08-14T13:16:17.145Z,100775.41
2023-08-14T13:18:45.905Z,100785.47
2023-08-14T13:21:14.351Z,100773.00
2023-08-14T13:23:44.376Z,100773.66
2023-08-14T13:26:25.950Z,100774.38
2023-08-14T13:28:57.205Z,100781.81
2023-08-14T13:31:25.309Z,100785.47
2023-08-14T13:33:53.315Z,100785.75
2023-08-14T13:36:21.261Z,100787.50
2023-08-14T13:38:49.543Z,100789.72
2023-08-14T13:41:17.731Z,100792.72
2023-08-14T13:43:45.681Z,100792.09
2023-08-14T13:46:15.117Z,100791.47
2023-08-14T13:48:45.613Z,100796.94
2023-08-14T13:51:13.899Z,100791.34
2023-08-14T13:53:41.910Z,100783.44
2023-08-14T13:56:09.774Z,100793.50
2023-08-14T13:58:37.881Z,100794.63
2023-08-14T14:01:05.933Z,100798.63
2023-08-14T14:03:35.317Z,100796.16
2023-08-14T14:06:04.144Z,100790.38
2023-08-14T14:08:32.273Z,100792.03
2023-08-14T14:11:00.243Z,100788.88
2023-08-14T14:13:28.391Z,100794.97
2023-08-14T14:15:56.637Z,100797.94
2023-08-14T14:18:24.665Z,100787.63
2023-08-14T14:20:53.981Z,100780.78
2023-08-14T14:23:21.843Z,100775.00
2023-08-14T14:25:49.763Z,100762.72
2023-08-14T14:28:18.216Z,100752.28
2023-08-14T14:30:46.016Z,100751.31
2023-08-14T14:33:13.828Z,100753.69
2023-08-14T14:35:41.703Z,100741.25
2023-08-14T14:38:11.248Z,100727.25
2023-08-14T14:40:39.251Z,100725.50
2023-08-14T14:43:07.105Z,100713.03
2023-08-14T14:45:35.618Z,100702.50
2023-08-14T14:48:04.440Z,100699.34
2023-08-14T14:50:32.672Z,100689.66
2023-08-14T14:53:00.637Z,100683.13
2023-08-14T14:55:33.422Z,100675.25
2023-08-14T14:58:01.480Z,100677.25
2023-08-14T15:00:29.483Z,100676.22
2023-08-14T15:02:57.431Z,100675.69
2023-08-14T15:05:29.005Z,100662.69
2023-08-14T15:07:58.008Z,100663.84
2023-08-14T15:10:30.759Z,100653.97
2023-08-14T15:13:02.740Z,100656.72
2023-08-14T15:15:30.784Z,100654.94
2023-08-14T15:17:58.967Z,100653.44
2023-08-14T15:20:27.016Z,100675.88
2023-08-14T15:22:54.979Z,100684.44
2023-08-14T15:25:23.805Z,100691.03
2023-08-14T15:27:51.844Z,100696.59
2023-08-14T15:30:21.123Z,100697.31
2023-08-14T15:32:49.341Z,100707.28
2023-08-14T15:35:17.706Z,100718.53
2023-08-14T15:37:45.907Z,100720.31
2023-08-14T15:40:14.959Z,100721.25
2023-08-14T15:42:43.545Z,100723.31
2023-08-14T15:45:14.271Z,100719.81
2023-08-14T15:47:44.323Z,100719.00
2023-08-14T15:50:12.436Z,100710.66
2023-08-14T15:52:40.612Z,100710.13
2023-08-14T15:55:09.290Z,100720.66
2023-08-14T15:57:37.607Z,100715.56
2023-08-14T16:00:07.863Z,100704.66
2023-08-14T16:02:36.283Z,100698.34
2023-08-14T16:05:06.065Z,100699.56
2023-08-14T16:07:36.028Z,100696.31
2023-08-14T16:10:05.549Z,100703.22
2023-08-14T16:12:33.734Z,100694.25
2023-08-14T16:15:01.824Z,100697.03
2023-08-14T16:17:30.244Z,100684.69
2023-08-14T16:19:58.604Z,100687.22
2023-08-14T16:22:28.142Z,100692.69
2023-08-14T16:24:56.123Z,100692.44
2023-08-14T16:27:24.437Z,100696.81
2023-08-14T16:29:52.250Z,100697.94
2023-08-14T16:32:20.638Z,100699.25
2023-08-14T16:34:48.911Z,100698.63
2023-08-14T16:37:19.080Z,100702.22
2023-08-14T16:39:48.697Z,100709.13
2023-08-14T16:42:16.917Z,100697.63
2023-08-14T16:44:45.499Z,100707.84
2023-08-14T16:47:14.760Z,100713.50
2023-08-14T16:49:42.807Z,100710.22
2023-08-14T16:52:11.722Z,100708.06
2023-08-14T16:54:39.615Z,100714.75
2023-08-14T16:57:09.372Z,100715.72
2023-08-14T16:59:38.356Z,100718.06
2023-08-14T17:02:06.603Z,100717.88
2023-08-14T17:04:34.577Z,100724.59
2023-08-14T17:07:03.947Z,100719.91
2023-08-14T17:09:32.025Z,100716.63
2023-08-14T17:12:00.130Z,100717.53
2023-08-14T17:14:29.933Z,100722.09
2023-08-14T17:16:57.931Z,100715.00
2023-08-14T17:19:27.926Z,100713.34
2023-08-14T17:21:56.283Z,100717.25
2023-08-14T17:24:24.293Z,100720.03
2023-08-14T17:26:52.332Z,100711.16
2023-08-14T17:29:21.660Z,100713.47
2023-08-14T17:31:51.854Z,100706.25
2023-08-14T17:34:19.985Z,100705.22
2023-08-14T17:36:48.511Z,100716.13
2023-08-14T17:39:17.111Z,100717.88
2023-08-14T17:41:44.980Z,100717.66
2023-08-14T17:44:13.053Z,100718.28
2023-08-14T17:46:41.074Z,100713.34
2023-08-14T17:49:11.085Z,100716.44
2023-08-14T17:51:41.433Z,100718.69
2023-08-14T17:54:10.364Z,100703.16
2023-08-14T17:56:38.598Z,100703.47
2023-08-14T17:59:06.606Z,100711.25
2023-08-14T18:01:35.005Z,100709.97
2023-08-14T18:04:05.121Z,100708.63
2023-08-14T18:06:34.606Z,100709.22
2023-08-14T18:09:06.123Z,100708.16
2023-08-14T18:11:35.932Z,100700.44
2023-08-14T18:14:04.531Z,100699.91
2023-08-14T18:16:32.913Z,100703.81
2023-08-14T18:19:22.597Z,100706.91
2023-08-14T18:21:50.622Z,100705.56
2023-08-14T18:24:19.267Z,100713.69
2023-08-14T18:26:47.374Z,100709.03
2023-08-14T18:29:15.718Z,100708.22
2023-08-14T18:31:44.040Z,100706.78
2023-08-14T18:34:12.357Z,100704.81
2023-08-14T18:36:40.321Z,100706.16
2023-08-14T18:39:09.935Z,100700.09
2023-08-14T18:41:38.120Z,100702.88
2023-08-14T18:44:06.502Z,100694.53
2023-08-14T18:46:34.639Z,100693.72
2023-08-14T18:49:03.003Z,100701.25
2023-08-14T18:51:31.295Z,100688.78
2023-08-14T18:54:01.103Z,100696.59
2023-08-14T18:56:30.721Z,100699.16
2023-08-14T18:59:01.117Z,100695.88
2023-08-14T19:01:36.834Z,100695.72
2023-08-14T19:04:06.117Z,100696.13
2023-08-14T19:06:34.171Z,100696.53
2023-08-14T19:09:02.212Z,100706.34
2023-08-14T19:11:31.632Z,100701.50
2023-08-14T19:13:59.778Z,100697.44
2023-08-14T19:16:28.081Z,100698.84
2023-08-14T19:18:56.611Z,100698.41
2023-08-14T19:21:25.011Z,100696.53
2023-08-14T19:23:53.115Z,100696.34
2023-08-14T19:26:28.223Z,100699.38
2023-08-14T19:28:58.208Z,100703.06
2023-08-14T19:31:28.270Z,100700.59
2023-08-14T19:33:59.951Z,100708.16
2023-08-14T19:36:28.333Z,100707.09
2023-08-14T19:38:56.719Z,100713.56
2023-08-14T19:41:25.339Z,100716.63
2023-08-14T19:43:53.269Z,100709.94
2023-08-14T19:46:25.563Z,100729.66
2023-08-14T19:48:54.011Z,100725.31
2023-08-14T19:51:22.325Z,100725.00
2023-08-14T19:53:50.134Z,100724.09
2023-08-14T19:56:18.218Z,100726.56
2023-08-14T19:58:46.248Z,100710.16
2023-08-14T20:01:14.124Z,100729.06
2023-08-14T20:03:44.565Z,100726.38
2023-08-14T20:06:13.132Z,100730.00
2023-08-14T20:08:41.526Z,100727.84
2023-08-14T20:11:10.221Z,100733.44
2023-08-14T20:13:38.275Z,100729.91
2023-08-14T20:16:06.597Z,100731.31
2023-08-14T20:18:34.758Z,100732.78
2023-08-14T20:21:04.459Z,100724.84
2023-08-14T20:23:35.577Z,100728.78
2023-08-14T20:26:07.107Z,100729.69
2023-08-14T20:28:36.578Z,100728.59
2023-08-14T20:31:05.067Z,100729.19
2023-08-14T20:33:33.315Z,100721.78
2023-08-14T20:36:01.163Z,100726.53
2023-08-14T20:38:30.500Z,100727.94
2023-08-14T20:40:58.465Z,100735.19
2023-08-14T20:43:31.281Z,100730.84
2023-08-14T20:45:59.333Z,100735.28
2023-08-14T20:48:29.015Z,100729.75
2023-08-14T20:50:57.186Z,100729.81
2023-08-14T20:53:25.103Z,100731.75
2023-08-14T20:55:56.721Z,100737.28
2023-08-14T20:58:25.093Z,100742.00
2023-08-14T21:00:53.108Z,100737.59
2023-08-14T21:03:21.103Z,100739.84
2023-08-14T21:05:50.171Z,100734.34
2023-08-14T21:08:18.938Z,100741.81
2023-08-14T21:10:46.851Z,100743.75
2023-08-14T21:13:19.101Z,100741.84
2023-08-14T21:15:46.947Z,100743.31
2023-08-14T21:18:16.100Z,100731.16
2023-08-14T21:20:44.785Z,100742.22
2023-08-14T21:23:13.135Z,100734.75
2023-08-14T21:25:47.357Z,100741.69
2023-08-14T21:28:16.779Z,100739.44
2023-08-14T21:30:46.598Z,100739.44
2023-08-14T21:33:14.715Z,100739.44
2023-08-14T21:35:42.749Z,100741.41
2023-08-14T21:38:13.694Z,100740.84
2023-08-14T21:40:42.097Z,100744.22
2023-08-14T21:43:10.170Z,100735.66
2023-08-14T21:45:40.976Z,100741.47
2023-08-14T21:48:14.656Z,100743.13
2023-08-14T21:50:43.287Z,100741.47
2023-08-14T21:53:11.490Z,100739.00
2023-08-14T21:55:41.562Z,100736.84
2023-08-14T21:58:09.805Z,100738.53
2023-08-14T22:00:38.686Z,100740.47
2023-08-14T22:03:07.022Z,100740.00
2023-08-14T22:05:36.551Z,100741.38
2023-08-14T22:08:05.139Z,100738.91
2023-08-14T22:10:35.150Z,100738.91
2023-08-14T22:13:04.312Z,100741.38
2023-08-14T22:15:45.588Z,100742.78
2023-08-14T22:18:16.237Z,100747.25
2023-08-14T22:20:46.311Z,100748.06
2023-08-14T22:23:14.710Z,100742.53
2023-08-14T22:25:43.783Z,100756.06
2023-08-14T22:28:16.390Z,100748.91
2023-08-14T22:30:44.449Z,100751.94
2023-08-14T22:33:12.626Z,100750.28
2023-08-14T22:35:40.592Z,100748.63
2023-08-14T22:38:09.933Z,100743.91
2023-08-14T22:40:37.808Z,100746.94
2023-08-14T22:43:05.874Z,100748.06
2023-08-14T22:48:01.762Z,100748.34
2023-08-14T22:50:31.221Z,100751.41
2023-08-14T22:52:59.126Z,100749.75
2023-08-14T22:55:28.475Z,100758.88
2023-08-14T22:57:59.469Z,100750.84
2023-08-14T23:00:28.457Z,100754.75
2023-08-14T23:02:57.084Z,100758.91
2023-08-14T23:05:25.714Z,100761.97
2023-08-14T23:07:54.129Z,100766.38
2023-08-14T23:10:21.937Z,100762.25
2023-08-14T23:12:51.184Z,100767.25
2023-08-14T23:15:21.872Z,100759.78
2023-08-14T23:17:49.764Z,100751.78
2023-08-14T23:20:17.879Z,100764.78
2023-08-14T23:22:45.689Z,100753.75
2023-08-14T23:25:13.875Z,100762.59
2023-08-14T23:27:41.956Z,100758.72
2023-08-14T23:30:12.246Z,100758.72
2023-08-14T23:32:40.096Z,100759.03
2023-08-14T23:35:08.895Z,100742.72
2023-08-14T23:37:38.052Z,100747.72
2023-08-14T23:40:07.046Z,100752.13
2023-08-14T23:42:34.834Z,100751.06
2023-08-14T23:45:02.903Z,100745.03
2023-08-14T23:47:32.137Z,100749.47
2023-08-14T23:49:59.967Z,100742.28
2023-08-14T23:52:27.817Z,100737.34
2023-08-14T23:54:55.659Z,100739.81
2023-08-14T23:57:23.771Z,100741.72
2023-08-14T23:59:51.836Z,100737.34
